Airfield :
LOGIN :

Register | Disclaimer

   EN    FR    IT 

 










Legend :    VFR   Marginal VFR   IFR   Intensive IFR   Very Intensive IFR
Visi :
Ceiling :
>= 8 km
>= 3000ft
5 to 8 km
1000 to 3000 ft
1500m to 5 km
500 to 1000 ft
800 to 1500m
200 to 500 ft
< 800m
< 200 ft
Symbols :   Thunderstorms  Fog  Heavy snow  Heavy precipitations  Wind > 20 kt
SIGMETs :     Misc.  Thunderstorms  Icing  Turbulence  Mountain Waves  Volcanic Ashes






- Airport Elevation : 465 ft
- IATA code : LEJ


EDDP - Leipzig Halle

CURRENT METAR :
  • 271920Z 17012KT 9999 BKN046 06/03 Q1005 NOSIG

EXPIRED METARs :
  • 271850Z 18011KT 9999 BKN043 06/03 Q1005 NOSIG
  • 271820Z 17013KT 9999 -RA BKN045 06/03 Q1006 NOSIG
  • 271750Z 18011KT 9999 -RA BKN042 07/03 Q1006 NOSIG
  • 271720Z 17010KT 9999 FEW030 BKN037 07/03 Q1007 NOSIG
  • 271650Z 17010KT 9999 BKN039 08/04 Q1007 NOSIG

TAF TAF EDDP
Valid from the 27 at 18:00 until the 28 at 18:00 UTC


271700Z 2718/2818 19012KT 9999 BKN040
BECMG 2808/2810 22015G25KT
PROB30
TEMPO 2810/2816 SHRAGS SCT015CB BKN020
BECMG 2811/2813 24020G35KT



MET'MAP, your aeronautical weather chart ! - Copyright ORBIFLY December 2007 - Disclaimer

ORBIFLY MET'MAP TEAM :

Programming & Development : Alexandra Zaïnal
Concept & original design : Baudouin d'Aumeries
Assistance for programming : Marc-Olivier Méhu
Technical & hardware support : Manuel Goepfert

Contact : metmap@orbifly.com




SOURCES & CREDITS :

   NOAA